Time;durP1;ratioP1;P1;durP2;ratioP2;P2;SDS_P1;SDS_P2;PMS_P1;PMS_P2;Temp;Humidity;BMP_temperature;BMP_pressure;BME280_temperature;BME280_humidity;BME280_pressure;Samples;Min_cycle;Max_cycle;Signal;HPM_P1;HPM_P2
2022/11/24 00:01:51;;;;;;;93.80;70.10;;;;;;;2.39;73.16;99707.30;109073;1271;21936;-77
2022/11/24 00:04:20;;;;;;;97.90;73.30;;;;;;;2.42;73.08;99705.73;108692;1271;21929;-77
2022/11/24 00:06:50;;;;;;;102.70;76.70;;;;;;;2.43;72.90;99709.30;108696;1271;23155;-79
2022/11/24 00:09:19;;;;;;;108.80;77.00;;;;;;;2.43;72.82;99718.08;108879;1271;22884;-78
2022/11/24 00:11:47;;;;;;;102.70;76.10;;;;;;;2.41;72.74;99720.69;109005;1271;21922;-76
2022/11/24 00:14:18;;;;;;;109.30;79.20;;;;;;;2.40;72.78;99722.59;108846;1271;21935;-76
2022/11/24 00:16:47;;;;;;;111.70;77.80;;;;;;;2.41;72.82;99726.53;109059;1270;21976;-77
2022/11/24 00:19:17;;;;;;;107.80;76.30;;;;;;;2.44;72.91;99726.99;108860;1271;23007;-77
2022/11/24 00:21:47;;;;;;;112.60;77.30;;;;;;;2.46;72.99;99725.75;108894;1271;21913;-77
2022/11/24 00:24:17;;;;;;;111.20;77.00;;;;;;;2.48;72.95;99722.64;108935;1271;21932;-77
2022/11/24 00:26:46;;;;;;;111.00;75.90;;;;;;;2.49;72.78;99724.35;109101;1273;22088;-78
2022/11/24 00:29:15;;;;;;;108.20;73.60;;;;;;;2.49;72.77;99728.29;108236;1277;21938;-78
2022/11/24 00:31:44;;;;;;;110.10;76.00;;;;;;;2.49;72.64;99723.64;108299;1278;21928;-78
2022/11/24 00:34:14;;;;;;;112.70;75.40;;;;;;;2.47;72.59;99729.17;108663;1277;21938;-78
2022/11/24 00:36:43;;;;;;;112.60;77.70;;;;;;;2.46;72.66;99731.42;108663;1278;21950;-78
2022/11/24 00:39:15;;;;;;;111.50;76.20;;;;;;;2.46;72.70;99731.42;108241;1281;23888;-78
2022/11/24 00:41:44;;;;;;;;;;;;;;;2.47;72.76;99735.54;108171;1283;23097;-77
2022/11/24 00:44:13;;;;;;;106.30;68.60;;;;;;;2.37;72.84;99737.39;107933;1286;24179;-77
2022/11/24 00:46:42;;;;;;;118.00;74.10;;;;;;;2.36;72.91;99734.83;107810;1284;23049;-77
2022/11/24 00:49:11;;;;;;;121.80;79.70;;;;;;;2.39;72.94;99737.38;108135;1284;23076;-78
2022/11/24 00:51:41;;;;;;;117.40;75.60;;;;;;;2.41;72.91;99735.79;107929;1284;23104;-76
2022/11/24 00:54:09;;;;;;;111.20;73.30;;;;;;;2.43;72.94;99736.27;107893;1284;22011;-76
2022/11/24 00:56:38;;;;;;;112.60;73.30;;;;;;;2.44;72.85;99739.19;108039;1280;21957;-77
2022/11/24 00:59:09;;;;;;;117.50;76.20;;;;;;;2.44;72.79;99738.83;108308;1280;21951;-78
2022/11/24 01:01:38;;;;;;;111.10;73.60;;;;;;;2.45;72.75;99735.21;108005;1282;21981;-75
2022/11/24 01:04:07;;;;;;;112.80;75.00;;;;;;;2.45;72.69;99733.16;108117;1278;23576;-77
2022/11/24 01:06:36;;;;;;;108.90;74.60;;;;;;;2.44;72.69;99734.02;108465;1276;21943;-77
2022/11/24 01:09:05;;;;;;;111.00;73.60;;;;;;;2.45;72.69;99737.97;108362;1278;22163;-75
2022/11/24 01:14:24;;;;;;;116.40;75.90;;;;;;;2.50;72.85;99738.41;108700;1275;23143;-77
2022/11/24 01:16:54;;;;;;;124.50;76.40;;;;;;;2.51;72.78;99736.34;107985;1285;24085;-77
2022/11/24 01:19:23;;;;;;;112.60;73.50;;;;;;;2.54;72.73;99744.02;108091;1280;21944;-77
2022/11/24 01:21:52;;;;;;;112.50;74.80;;;;;;;2.55;72.75;99749.31;108382;1279;22553;-77
2022/11/24 01:24:21;;;;;;;118.70;77.00;;;;;;;2.58;72.69;99748.08;108418;1278;22644;-77
2022/11/24 01:26:50;;;;;;;114.40;76.00;;;;;;;2.60;72.68;99743.23;108210;1283;23023;-78
2022/11/24 01:29:19;;;;;;;117.80;78.90;;;;;;;2.61;72.64;99736.70;108348;1282;23078;-78
2022/11/24 01:31:48;;;;;;;118.20;77.90;;;;;;;2.61;72.56;99733.77;108163;1281;23116;-78
2022/11/24 01:34:18;;;;;;;128.60;79.30;;;;;;;2.63;72.52;99731.86;108409;1278;21949;-78
2022/11/24 01:36:47;;;;;;;116.10;75.10;;;;;;;2.62;72.44;99732.21;108755;1278;21973;-77
2022/11/24 01:39:16;;;;;;;121.60;77.40;;;;;;;2.63;72.48;99738.73;108177;1283;22080;-77
2022/11/24 01:41:45;;;;;;;121.80;77.90;;;;;;;2.63;72.32;99736.67;107989;1283;22698;-77
2022/11/24 01:44:28;;;;;;;119.10;77.30;;;;;;;2.64;72.34;99737.86;107827;1277;24312;-78
2022/11/24 01:47:04;;;;;;;;;;;;;;;2.63;72.39;99737.35;108685;1277;21931;-77
2022/11/24 01:49:57;;;;;;;117.80;71.70;;;;;;;2.56;72.65;99740.71;108315;1283;22025;-77
2022/11/24 01:52:37;;;;;;;132.60;79.70;;;;;;;2.55;72.67;99737.64;108262;1283;21938;-77
2022/11/24 01:55:17;;;;;;;135.70;80.00;;;;;;;2.57;72.63;99736.08;108432;1271;22402;-78
2022/11/24 01:58:14;;;;;;;134.00;79.40;;;;;;;2.57;72.49;99739.50;108276;1278;21927;-78
2022/11/24 02:00:44;;;;;;;120.20;74.50;;;;;;;2.54;72.55;99741.44;108674;1278;21955;-76
2022/11/24 02:03:19;;;;;;;118.60;76.20;;;;;;;2.56;72.64;99735.58;108263;1275;23679;-76
2022/11/24 02:06:05;;;;;;;129.30;79.10;;;;;;;2.57;72.57;99735.89;108637;1275;21967;-76
2022/11/24 02:08:46;;;;;;;132.50;78.20;;;;;;;2.57;72.50;99739.51;108769;1273;23612;-77
2022/11/24 02:11:15;;;;;;;120.70;75.00;;;;;;;2.59;72.56;99742.91;108912;1269;21925;-77
2022/11/24 02:13:46;;;;;;;122.90;79.50;;;;;;;2.60;72.47;99740.66;108828;1273;21970;-77
2022/11/24 02:16:15;;;;;;;128.70;76.40;;;;;;;2.61;72.52;99736.00;108506;1275;23579;-77
2022/11/24 02:18:45;;;;;;;120.40;76.10;;;;;;;2.63;72.60;99728.43;108870;1271;22020;-77
2022/11/24 02:21:15;;;;;;;133.70;82.50;;;;;;;2.65;72.58;99724.61;109035;1271;21928;-77
2022/11/24 02:24:04;;;;;;;125.40;79.60;;;;;;;2.65;72.41;99718.42;108467;1277;21941;-77
2022/11/24 02:26:41;;;;;;;124.80;76.40;;;;;;;2.63;72.39;99719.83;108662;1264;23086;-77
2022/11/24 02:29:13;;;;;;;116.40;74.40;;;;;;;2.61;72.42;99718.67;108405;1280;21957;-77
2022/11/24 02:31:58;;;;;;;116.00;71.90;;;;;;;2.61;72.49;99716.44;108527;1280;21957;-77
2022/11/24 02:34:27;;;;;;;119.90;72.60;;;;;;;2.60;72.54;99713.70;108363;1280;23608;-77
2022/11/24 02:36:55;;;;;;;110.40;67.90;;;;;;;2.62;72.62;99712.30;108221;1280;21911;-77
2022/11/24 02:39:25;;;;;;;109.70;71.30;;;;;;;2.62;72.52;99714.85;108460;1280;21951;-76
2022/11/24 02:42:02;;;;;;;102.10;69.10;;;;;;;2.63;72.60;99718.63;108566;1271;21931;-77
2022/11/24 02:44:40;;;;;;;109.50;70.40;;;;;;;2.63;72.58;99720.01;108901;1269;21931;-77
2022/11/24 02:47:12;;;;;;;106.70;69.00;;;;;;;2.60;72.34;99717.98;108796;1271;24349;-77
2022/11/24 02:49:41;;;;;;;111.90;68.60;;;;;;;2.56;72.44;99714.45;108930;1271;21948;-77
2022/11/24 02:52:10;;;;;;;110.30;69.90;;;;;;;2.54;72.39;99717.05;108807;1271;22404;-77
2022/11/24 02:54:39;;;;;;;123.80;75.80;;;;;;;2.54;72.40;99721.00;108398;1278;22088;-76
2022/11/24 02:57:09;;;;;;;122.40;76.90;;;;;;;2.55;72.56;99720.30;108642;1280;21951;-77
2022/11/24 02:59:39;;;;;;;125.50;76.20;;;;;;;2.56;72.63;99721.14;108649;1278;21943;-78
2022/11/24 03:02:09;;;;;;;144.70;83.90;;;;;;;2.58;72.60;99723.01;108605;1278;22699;-78
2022/11/24 03:04:38;;;;;;;133.00;79.50;;;;;;;2.59;72.63;99724.03;108207;1282;23078;-78
2022/11/24 03:07:07;;;;;;;136.00;81.70;;;;;;;2.60;72.64;99724.35;108003;1283;21984;-77
2022/11/24 03:09:36;;;;;;;138.90;82.60;;;;;;;2.61;72.55;99718.66;107976;1283;22033;-78
2022/11/24 03:12:06;;;;;;;149.00;86.20;;;;;;;2.62;72.51;99716.42;108056;1278;23151;-76
2022/11/24 03:14:35;;;;;;;149.40;85.10;;;;;;;2.63;72.55;99718.46;108496;1278;22232;-77
2022/11/24 03:17:04;;;;;;;164.10;86.00;;;;;;;2.61;72.54;99714.20;108510;1278;21927;-78
2022/11/24 03:19:33;;;;;;;149.00;83.20;;;;;;;2.59;72.59;99712.17;108138;1278;23676;-77
2022/11/24 03:22:02;;;;;;;153.30;89.10;;;;;;;2.58;72.68;99711.66;108651;1271;23587;-78
2022/11/24 03:24:31;;;;;;;152.90;87.20;;;;;;;2.59;72.68;99712.84;108850;1271;21991;-78
2022/11/24 03:27:01;;;;;;;151.90;85.30;;;;;;;2.60;72.61;99715.42;108868;1271;22092;-77
2022/11/24 03:29:30;;;;;;;154.90;84.70;;;;;;;2.57;72.57;99719.05;108898;1271;21949;-79
2022/11/24 03:31:59;;;;;;;152.20;86.90;;;;;;;2.57;72.65;99715.45;108800;1271;22187;-78
2022/11/24 03:34:28;;;;;;;144.40;84.30;;;;;;;2.58;72.66;99715.27;108803;1271;23603;-78
2022/11/24 03:36:57;;;;;;;143.10;85.30;;;;;;;2.59;72.72;99714.39;108904;1271;21933;-77
2022/11/24 03:39:26;;;;;;;138.50;82.40;;;;;;;2.62;72.83;99717.63;108600;1271;23374;-77
2022/11/24 03:41:56;;;;;;;142.70;83.50;;;;;;;2.64;72.84;99723.27;109075;1271;21933;-76
2022/11/24 03:44:25;;;;;;;138.50;82.10;;;;;;;2.65;72.70;99725.98;109071;1271;23559;-77
2022/11/24 03:46:54;;;;;;;134.90;81.90;;;;;;;2.65;72.70;99730.10;108937;1272;23042;-77
2022/11/24 03:49:23;;;;;;;143.10;83.80;;;;;;;2.65;72.68;99731.84;108663;1272;23042;-77
2022/11/24 03:51:52;;;;;;;130.90;81.00;;;;;;;2.65;72.72;99732.17;108558;1271;21968;-77
2022/11/24 03:54:21;;;;;;;131.40;79.90;;;;;;;2.66;72.79;99733.19;108495;1278;21963;-77
2022/11/24 03:56:50;;;;;;;137.00;79.70;;;;;;;2.68;72.77;99737.45;108674;1278;23135;-77
2022/11/24 03:59:19;;;;;;;136.90;80.80;;;;;;;2.70;72.77;99738.11;108244;1286;21971;-77
2022/11/24 04:01:48;;;;;;;134.20;81.10;;;;;;;2.72;72.82;99742.20;107770;1281;22338;-78
2022/11/24 04:04:17;;;;;;;133.40;81.00;;;;;;;2.74;72.74;99742.34;108212;1286;21970;-77
2022/11/24 04:06:46;;;;;;;132.50;79.70;;;;;;;2.75;72.71;99738.71;107948;1286;24945;-78
2022/11/24 04:09:15;;;;;;;133.50;80.70;;;;;;;2.76;72.68;99739.91;108075;1286;23601;-78
2022/11/24 04:14:32;;;;;;;116.30;73.40;;;;;;;2.74;72.57;99744.92;108267;1283;23053;-78
2022/11/24 04:17:03;;;;;;;118.30;73.40;;;;;;;2.71;72.43;99750.98;108272;1278;23094;-78
2022/11/24 04:19:32;;;;;;;127.70;77.00;;;;;;;2.69;72.54;99751.17;108660;1278;21930;-77
2022/11/24 04:22:00;;;;;;;130.90;78.30;;;;;;;2.69;72.62;99751.35;108670;1278;21949;-78
2022/11/24 04:24:29;;;;;;;132.30;83.40;;;;;;;2.69;72.53;99757.20;108629;1278;21964;-77
2022/11/24 04:26:59;;;;;;;141.60;83.50;;;;;;;2.64;72.47;99759.16;108482;1278;24036;-76
2022/11/24 04:29:28;;;;;;;134.70;79.50;;;;;;;2.61;72.54;99759.20;108450;1278;21931;-77
2022/11/24 04:31:57;;;;;;;141.40;85.40;;;;;;;2.58;72.67;99759.59;108533;1276;22987;-78
2022/11/24 04:34:26;;;;;;;135.10;82.40;;;;;;;2.54;72.70;99762.57;108627;1272;21954;-77
2022/11/24 04:36:55;;;;;;;137.60;85.10;;;;;;;2.52;72.68;99763.80;108772;1271;21943;-77
2022/11/24 04:39:24;;;;;;;151.20;91.00;;;;;;;2.52;72.76;99763.63;108752;1271;23782;-78
2022/11/24 04:41:56;;;;;;;144.20;85.90;;;;;;;2.50;72.67;99771.73;108343;1277;21946;-77
2022/11/24 04:44:25;;;;;;;143.30;86.90;;;;;;;2.46;72.77;99775.05;108359;1277;21948;-77
2022/11/24 04:46:54;;;;;;;145.10;86.20;;;;;;;2.44;72.84;99779.20;108426;1280;21945;-77
2022/11/24 04:49:23;;;;;;;141.20;87.00;;;;;;;2.42;72.90;99779.05;108374;1280;23786;-78
2022/11/24 04:51:52;;;;;;;133.50;83.30;;;;;;;2.45;73.08;99780.90;108439;1280;21993;-76
2022/11/24 04:54:22;;;;;;;133.70;83.60;;;;;;;2.46;73.03;99783.12;108388;1280;21978;-76
2022/11/24 04:56:52;;;;;;;129.10;80.60;;;;;;;2.45;73.05;99781.76;108327;1281;21959;-77
2022/11/24 04:59:21;;;;;;;127.00;79.70;;;;;;;2.45;73.04;99786.73;108229;1278;21948;-75
2022/11/24 05:01:50;;;;;;;128.30;78.30;;;;;;;2.47;73.08;99794.77;108550;1272;22604;-77
2022/11/24 05:04:20;;;;;;;128.70;77.30;;;;;;;2.48;73.18;99797.69;108805;1265;21956;-76
2022/11/24 05:06:49;;;;;;;125.50;80.20;;;;;;;2.49;73.05;99806.27;108664;1272;23665;-77
2022/11/24 05:09:18;;;;;;;125.20;78.90;;;;;;;2.47;73.03;99810.94;108699;1274;21973;-77
2022/11/24 05:11:47;;;;;;;120.10;75.90;;;;;;;2.47;73.15;99815.41;108517;1272;21938;-76
2022/11/24 05:14:16;;;;;;;115.30;73.60;;;;;;;2.48;73.22;99821.74;108501;1275;21955;-76
2022/11/24 05:16:45;;;;;;;123.10;78.00;;;;;;;2.49;73.15;99823.11;108711;1275;21970;-78
2022/11/24 05:19:14;;;;;;;119.10;76.60;;;;;;;2.48;73.05;99824.14;108520;1277;23667;-78
2022/11/24 05:21:43;;;;;;;118.10;75.70;;;;;;;2.46;73.03;99828.63;108422;1277;21993;-77
2022/11/24 05:24:13;;;;;;;118.60;74.10;;;;;;;2.47;73.00;99831.04;108376;1277;21932;-76
2022/11/24 05:26:42;;;;;;;118.70;75.90;;;;;;;2.44;72.97;99830.71;108385;1277;21948;-76
2022/11/24 05:29:11;;;;;;;119.30;77.50;;;;;;;2.42;72.98;99832.63;108241;1278;21928;-76
2022/11/24 05:31:40;;;;;;;118.20;75.90;;;;;;;2.41;73.03;99834.52;108430;1277;21944;-78
2022/11/24 05:34:09;;;;;;;115.70;73.00;;;;;;;2.42;73.20;99831.95;108016;1283;21980;-76
2022/11/24 05:36:55;;;;;;;114.80;73.00;;;;;;;2.43;73.20;99832.45;107953;1277;21941;-76
2022/11/24 05:39:24;;;;;;;115.70;73.00;;;;;;;2.42;73.25;99836.24;107975;1286;23687;-77
2022/11/24 05:41:53;;;;;;;113.20;71.40;;;;;;;2.42;73.24;99836.41;107976;1286;24381;-78
2022/11/24 05:44:22;;;;;;;105.00;69.50;;;;;;;2.44;73.25;99838.95;107938;1286;21952;-77
2022/11/24 05:46:51;;;;;;;102.40;68.30;;;;;;;2.45;73.13;99841.35;107937;1287;21989;-77
2022/11/24 05:49:20;;;;;;;105.10;68.60;;;;;;;2.45;73.09;99847.18;107442;1295;22839;-75
2022/11/24 05:51:49;;;;;;;100.10;65.80;;;;;;;2.47;73.24;99847.52;107533;1286;22300;-76
2022/11/24 05:54:17;;;;;;;109.10;71.20;;;;;;;2.50;73.22;99851.95;107788;1286;22023;-77
2022/11/24 05:56:47;;;;;;;98.60;65.90;;;;;;;2.54;73.21;99854.14;108007;1280;21946;-78
2022/11/24 05:59:16;;;;;;;96.50;63.50;;;;;;;2.56;73.09;99851.86;108402;1280;21940;-77
2022/11/24 06:01:44;;;;;;;94.30;63.90;;;;;;;2.57;73.10;99855.98;108474;1281;21957;-77
2022/11/24 06:04:14;;;;;;;92.80;61.60;;;;;;;2.59;73.02;99859.57;108356;1280;23660;-77
2022/11/24 06:06:43;;;;;;;94.10;63.10;;;;;;;2.60;72.97;99862.12;108196;1276;22712;-75
2022/11/24 06:09:12;;;;;;;106.30;63.50;;;;;;;2.62;72.93;99862.95;108621;1272;21913;-77
2022/11/24 06:11:42;;;;;;;97.20;66.60;;;;;;;2.63;72.88;99865.52;108885;1272;22174;-76
2022/11/24 06:14:10;;;;;;;99.60;68.70;;;;;;;2.62;72.74;99866.39;108383;1278;23769;-80
2022/11/24 06:16:39;;;;;;;102.70;67.60;;;;;;;2.63;72.85;99867.94;108690;1278;21981;-76
2022/11/24 06:19:10;;;;;;;94.40;65.10;;;;;;;2.64;72.84;99869.63;108286;1278;21931;-74
2022/11/24 06:21:39;;;;;;;97.70;66.30;;;;;;;2.63;72.68;99867.05;108101;1277;23350;-75
2022/11/24 06:24:08;;;;;;;101.70;67.00;;;;;;;2.60;72.67;99864.70;108199;1278;22844;-75
2022/11/24 06:26:37;;;;;;;107.00;70.00;;;;;;;2.59;72.74;99866.77;108275;1275;21989;-76
2022/11/24 06:29:06;;;;;;;112.80;72.70;;;;;;;2.58;72.66;99865.76;108282;1278;24364;-74
2022/11/24 06:31:35;;;;;;;120.40;75.60;;;;;;;2.56;72.63;99866.29;107989;1282;22703;-76
2022/11/24 06:34:07;;;;;;;117.20;72.60;;;;;;;2.55;72.72;99867.52;108630;1268;21949;-76
2022/11/24 06:36:37;;;;;;;122.80;79.30;;;;;;;2.56;72.80;99872.30;108650;1278;21989;-77
2022/11/24 06:39:06;;;;;;;126.10;78.20;;;;;;;2.55;72.67;99878.48;108630;1276;21976;-78
2022/11/24 06:41:35;;;;;;;131.90;80.20;;;;;;;2.51;72.69;99878.55;108696;1264;22204;-75
2022/11/24 06:44:07;;;;;;;135.50;83.10;;;;;;;2.55;72.84;99881.09;108255;1283;22040;-79
2022/11/24 06:46:36;;;;;;;138.30;86.50;;;;;;;2.56;72.92;99877.63;107735;1288;23380;-76
2022/11/24 06:49:05;;;;;;;144.20;86.80;;;;;;;2.56;72.84;99876.59;107761;1282;21964;-76
2022/11/24 06:51:34;;;;;;;140.60;85.30;;;;;;;2.58;72.79;99883.61;108332;1283;23676;-75
2022/11/24 06:54:07;;;;;;;146.90;87.30;;;;;;;2.59;72.80;99882.75;108060;1284;22700;-75
2022/11/24 06:56:36;;;;;;;143.20;85.80;;;;;;;2.58;72.84;99885.33;108298;1284;21937;-75
2022/11/24 06:59:05;;;;;;;134.40;85.80;;;;;;;2.59;72.81;99887.39;108275;1284;23794;-75
2022/11/24 07:01:34;;;;;;;130.40;80.70;;;;;;;2.59;72.78;99887.38;108216;1280;21942;-76
2022/11/24 07:04:03;;;;;;;129.50;81.70;;;;;;;2.60;72.76;99886.86;108479;1282;23096;-75
2022/11/24 07:06:32;;;;;;;130.10;83.90;;;;;;;2.60;72.77;99887.89;108323;1283;23788;-76
2022/11/24 07:09:01;;;;;;;144.40;88.30;;;;;;;2.61;72.73;99894.73;108360;1284;22101;-75
2022/11/24 07:11:30;;;;;;;145.20;90.30;;;;;;;2.63;72.75;99896.77;108074;1283;21937;-74
2022/11/24 07:13:59;;;;;;;166.70;93.40;;;;;;;2.63;72.71;99898.84;108014;1283;21944;-75
2022/11/24 07:16:29;;;;;;;170.40;95.40;;;;;;;2.61;72.63;99904.71;108038;1284;23068;-75
2022/11/24 07:18:59;;;;;;;160.10;89.50;;;;;;;2.62;72.64;99904.53;108504;1281;21941;-75
2022/11/24 07:21:29;;;;;;;154.00;88.30;;;;;;;2.62;72.72;99906.25;108467;1276;21932;-75
2022/11/24 07:23:58;;;;;;;154.40;90.50;;;;;;;2.63;72.75;99908.63;108414;1278;22702;-77
2022/11/24 07:26:27;;;;;;;151.70;86.90;;;;;;;2.64;72.77;99914.46;108262;1283;23711;-75
2022/11/24 07:28:56;;;;;;;153.50;88.30;;;;;;;2.61;72.65;99912.97;108215;1284;22754;-79
2022/11/24 07:31:25;;;;;;;150.80;84.50;;;;;;;2.60;72.72;99919.84;108269;1284;22512;-77
2022/11/24 07:33:54;;;;;;;132.10;78.50;;;;;;;2.60;72.79;99925.84;107839;1286;21942;-76
2022/11/24 07:36:24;;;;;;;116.00;75.40;;;;;;;2.60;72.73;99929.30;107855;1286;21969;-76
2022/11/24 07:38:53;;;;;;;127.00;78.20;;;;;;;2.60;72.69;99931.52;107724;1286;22743;-77
2022/11/24 07:41:22;;;;;;;129.80;80.00;;;;;;;2.60;72.68;99930.66;107630;1287;21962;-78
2022/11/24 07:43:51;;;;;;;122.30;78.20;;;;;;;2.61;72.73;99932.72;108344;1281;21946;-79
2022/11/24 07:46:20;;;;;;;119.80;79.10;;;;;;;2.63;72.83;99934.75;108610;1278;23081;-81
2022/11/24 07:48:49;;;;;;;136.50;83.00;;;;;;;2.65;72.85;99939.02;108193;1278;21990;-76
2022/11/24 07:51:18;;;;;;;136.00;84.80;;;;;;;2.67;72.68;99943.64;108589;1275;22075;-76
2022/11/24 07:53:47;;;;;;;146.90;85.80;;;;;;;2.67;72.64;99948.11;108312;1278;23672;-76
2022/11/24 07:56:16;;;;;;;146.50;87.10;;;;;;;2.66;72.58;99952.92;108408;1278;23572;-76
2022/11/24 07:58:45;;;;;;;144.70;87.20;;;;;;;2.67;72.59;99957.90;108457;1277;21938;-76
2022/11/24 08:01:20;;;;;;;139.70;86.70;;;;;;;2.68;72.50;99954.80;108459;1278;22892;-75
2022/11/24 08:03:49;;;;;;;141.70;87.30;;;;;;;2.66;72.49;99953.45;108436;1276;21930;-75
2022/11/24 08:06:19;;;;;;;137.00;85.40;;;;;;;2.67;72.50;99955.66;108488;1280;21934;-78
2022/11/24 08:08:57;;;;;;;146.20;88.90;;;;;;;2.68;72.53;99961.14;108580;1275;21934;-74
2022/11/24 08:11:26;;;;;;;140.50;84.20;;;;;;;2.69;72.37;99961.65;108515;1274;21919;-74
2022/11/24 08:13:56;;;;;;;146.70;85.30;;;;;;;2.68;72.43;99965.45;108252;1277;22040;-77
2022/11/24 08:16:25;;;;;;;138.90;87.50;;;;;;;2.68;72.51;99966.31;108164;1279;21959;-75
2022/11/24 08:18:55;;;;;;;136.80;84.80;;;;;;;2.67;72.39;99968.72;108384;1279;23055;-77
2022/11/24 08:21:24;;;;;;;137.80;84.20;;;;;;;2.65;72.35;99966.18;108451;1280;21947;-77
2022/11/24 08:23:55;;;;;;;131.40;79.40;;;;;;;2.64;72.44;99964.80;108025;1282;21935;-77
2022/11/24 08:26:25;;;;;;;132.30;82.20;;;;;;;2.64;72.34;99964.46;108242;1282;21990;-78
2022/11/24 08:28:58;;;;;;;130.40;81.40;;;;;;;2.67;72.45;99970.61;108262;1283;23060;-78
2022/11/24 08:31:34;;;;;;;127.30;82.50;;;;;;;2.69;72.40;99972.48;108392;1281;23681;-78
2022/11/24 08:34:05;;;;;;;125.10;80.90;;;;;;;2.70;72.22;99973.16;108658;1277;23008;-78
2022/11/24 08:36:34;;;;;;;124.50;81.10;;;;;;;2.69;72.29;99971.61;108706;1275;23885;-78
2022/11/24 08:39:02;;;;;;;122.80;79.40;;;;;;;2.71;72.18;99972.29;108199;1277;22641;-78
2022/11/24 08:41:32;;;;;;;122.20;80.20;;;;;;;2.71;72.14;99977.44;108554;1274;23792;-77
2022/11/24 08:44:01;;;;;;;139.80;92.90;;;;;;;2.72;72.16;99974.86;109073;1271;23846;-78
2022/11/24 08:46:30;;;;;;;120.70;78.40;;;;;;;2.76;72.30;99974.98;108906;1271;21950;-78
2022/11/24 08:48:59;;;;;;;113.20;75.40;;;;;;;2.82;72.39;99973.52;108782;1271;21950;-78
2022/11/24 08:51:28;;;;;;;126.70;83.80;;;;;;;2.89;72.36;99970.17;108903;1271;21941;-78
2022/11/24 08:54:00;;;;;;;120.80;79.00;;;;;;;2.93;72.20;99973.73;108928;1274;22282;-80
2022/11/24 08:56:31;;;;;;;115.70;79.40;;;;;;;2.96;72.20;99973.52;108750;1276;24318;-80
2022/11/24 08:59:02;;;;;;;121.60;80.90;;;;;;;2.97;72.01;99974.89;109080;1275;21924;-80
2022/11/24 09:01:31;;;;;;;122.60;81.80;;;;;;;3.01;72.11;99976.39;108704;1278;23620;-76
2022/11/24 09:04:00;;;;;;;121.80;84.20;;;;;;;3.07;72.10;99976.48;108172;1284;23740;-77
2022/11/24 09:06:29;;;;;;;120.90;81.10;;;;;;;3.09;71.89;99976.11;108363;1283;21952;-78
2022/11/24 09:08:59;;;;;;;120.50;79.40;;;;;;;3.11;71.76;99976.44;108063;1283;21951;-77
2022/11/24 09:11:29;;;;;;;114.60;80.10;;;;;;;3.14;71.72;99977.25;108313;1283;22606;-78
2022/11/24 09:13:58;;;;;;;108.70;75.30;;;;;;;3.15;71.51;99977.91;108337;1282;21927;-76
2022/11/24 09:16:28;;;;;;;115.40;79.40;;;;;;;3.15;71.40;99979.98;108298;1284;21975;-78
2022/11/24 09:19:00;;;;;;;114.80;80.10;;;;;;;3.16;71.35;99978.78;108380;1277;22540;-78
2022/11/24 09:21:33;;;;;;;118.40;74.70;;;;;;;3.16;71.22;99982.73;108718;1275;21950;-77
2022/11/24 09:24:03;;;;;;;110.30;74.40;;;;;;;3.18;71.22;99987.50;108652;1272;21975;-76
2022/11/24 09:26:35;;;;;;;102.10;72.90;;;;;;;3.21;71.28;99986.27;108862;1270;22722;-77
2022/11/24 09:29:06;;;;;;;100.70;71.60;;;;;;;3.24;71.22;99983.66;109093;1275;23013;-75
2022/11/24 09:31:38;;;;;;;110.80;77.00;;;;;;;3.28;71.24;99983.77;108869;1271;21944;-74
2022/11/24 09:34:11;;;;;;;98.30;71.00;;;;;;;3.32;71.18;99984.05;108875;1274;23673;-73
2022/11/24 09:36:41;;;;;;;108.30;75.30;;;;;;;3.36;71.03;99988.14;108952;1272;22024;-79
2022/11/24 09:39:11;;;;;;;111.50;80.10;;;;;;;3.43;71.20;99986.65;108526;1276;21927;-76
2022/11/24 09:42:19;;;;;;;116.60;79.60;;;;;;;3.49;70.93;99981.23;108768;1273;21943;-76
2022/11/24 09:45:15;;;;;;;106.20;76.80;;;;;;;3.52;70.93;99988.43;108856;1274;21945;-76
2022/11/24 09:48:09;;;;;;;101.50;72.20;;;;;;;3.56;70.86;99991.98;108709;1275;21916;-76
2022/11/24 09:50:38;;;;;;;100.10;72.90;;;;;;;3.62;70.77;99989.48;108799;1274;23668;-75
2022/11/24 09:53:33;;;;;;;90.80;65.10;;;;;;;3.67;70.63;99990.95;108849;1272;21998;-74
2022/11/24 09:56:33;;;;;;;95.00;68.70;;;;;;;3.71;70.45;99991.91;108517;1277;21943;-76
2022/11/24 09:59:23;;;;;;;95.50;68.50;;;;;;;3.74;70.36;99994.96;108870;1274;21943;-76
2022/11/24 10:01:54;;;;;;;90.80;68.40;;;;;;;3.79;70.21;99993.86;108859;1274;22909;-75
2022/11/24 10:04:38;;;;;;;97.80;71.20;;;;;;;3.83;69.96;99992.24;108826;1274;21914;-76
2022/11/24 10:07:43;;;;;;;102.60;71.80;;;;;;;3.83;69.69;99993.27;108898;1274;21932;-75
2022/11/24 10:10:39;;;;;;;100.30;73.80;;;;;;;3.79;69.49;99995.76;108863;1274;23685;-75
2022/11/24 10:13:33;;;;;;;99.00;73.30;;;;;;;3.73;69.24;99992.92;108671;1275;23271;-77
2022/11/24 10:16:20;;;;;;;103.20;72.10;;;;;;;3.70;69.28;99993.65;108953;1275;21930;-76
2022/11/24 10:19:01;;;;;;;101.10;72.50;;;;;;;3.71;69.38;99993.13;108881;1272;23678;-75
2022/11/24 10:21:39;;;;;;;96.70;71.40;;;;;;;3.73;69.36;99990.67;108889;1274;23613;-74
2022/11/24 10:24:50;;;;;;;100.00;72.50;;;;;;;3.76;69.24;99992.01;108921;1274;23598;-75
2022/11/24 10:27:29;;;;;;;103.80;72.60;;;;;;;3.76;69.03;99988.40;108970;1272;22066;-73
2022/11/24 10:29:59;;;;;;;94.90;72.00;;;;;;;3.76;69.01;99989.42;108719;1275;21898;-75
2022/11/24 10:32:39;;;;;;;94.60;71.70;;;;;;;3.79;68.99;99991.45;108700;1274;22180;-75
2022/11/24 10:35:21;;;;;;;97.60;73.50;;;;;;;3.84;69.10;99989.14;108571;1277;21899;-75
2022/11/24 10:38:33;;;;;;;98.10;74.00;;;;;;;3.87;69.01;99987.71;108923;1270;21982;-76
2022/11/24 10:41:10;;;;;;;96.10;72.10;;;;;;;3.85;68.80;99991.34;108911;1276;21995;-75
2022/11/24 10:43:41;;;;;;;94.30;71.70;;;;;;;3.87;68.69;99993.90;108858;1274;23136;-76
2022/11/24 10:46:17;;;;;;;111.50;83.20;;;;;;;3.87;68.69;99996.67;109149;1274;23599;-76
2022/11/24 10:48:57;;;;;;;106.60;81.30;;;;;;;3.84;68.50;100000.67;108899;1273;21946;-76
2022/11/24 10:51:51;;;;;;;104.00;77.50;;;;;;;3.80;68.34;99995.55;108785;1274;21944;-75
2022/11/24 10:54:22;;;;;;;102.70;73.50;;;;;;;3.76;68.22;99996.14;108669;1274;22393;-74
2022/11/24 10:56:53;;;;;;;104.10;75.80;;;;;;;3.76;68.34;99994.95;108762;1275;21975;-75
2022/11/24 10:59:31;;;;;;;111.00;79.40;;;;;;;3.77;68.23;99992.52;108885;1275;21936;-75
2022/11/24 11:02:22;;;;;;;107.60;74.30;;;;;;;3.77;68.11;99987.71;108008;1275;1163376;-75
2022/11/24 11:04:51;;;;;;;103.30;75.10;;;;;;;3.76;68.23;99992.02;108905;1274;21932;-75
2022/11/24 11:07:32;;;;;;;106.80;76.00;;;;;;;3.78;68.19;99991.63;108733;1277;22033;-74
2022/11/24 11:10:22;;;;;;;102.70;74.80;;;;;;;3.80;68.17;99990.56;108846;1275;23062;-75
2022/11/24 11:12:51;;;;;;;100.50;73.40;;;;;;;3.83;68.17;99986.91;108971;1274;21969;-74
2022/11/24 11:15:30;;;;;;;100.80;73.90;;;;;;;3.86;68.16;99984.95;108789;1275;21920;-74
2022/11/24 11:18:03;;;;;;;105.50;74.90;;;;;;;3.88;68.06;99987.86;108604;1278;23032;-74
2022/11/24 11:20:46;;;;;;;93.00;69.60;;;;;;;3.90;67.96;99993.67;108599;1281;22411;-76
2022/11/24 11:23:29;;;;;;;93.60;69.90;;;;;;;3.86;67.73;99991.51;108371;1281;24381;-75
2022/11/24 11:26:38;;;;;;;97.30;72.70;;;;;;;3.86;67.69;99992.55;108569;1278;21966;-75
2022/11/24 11:29:09;;;;;;;96.30;71.20;;;;;;;3.82;67.77;99988.46;108528;1278;23711;-75
2022/11/24 11:32:26;;;;;;;100.40;72.70;;;;;;;3.85;67.80;99992.89;108630;1278;23774;-75
2022/11/24 11:35:26;;;;;;;;;;;;;;;;;;;;;
2022/11/24 11:38:05;;;;;;;90.20;69.10;;;;;;;3.84;67.69;100000.32;108581;1278;22913;-76
2022/11/24 11:40:36;;;;;;;104.10;74.40;;;;;;;3.85;67.71;100002.72;108485;1274;23580;-76
2022/11/24 11:43:34;;;;;;;94.80;74.20;;;;;;;3.88;67.69;100005.41;108531;1277;22400;-74